Terminal Aerodrome Forecast
Issued by NWS Houston/Galveston TX

Home | Current Version | Previous Version | Text Only | Print | Product List | Glossary On
Versions: 1 2 3 4 5 6 7 8 9 10 11 12 13 14 15 16 17 18 19 20 21 22 23 24 25 26 27 28 29 30 31 32 33 34
000
FTUS44 KHGX 281733
TAFHOU
TAF
KHOU 281733Z 2818/2918 20008KT P6SM VCTS SCT030CB BKN060
     FM282100 16006KT P6SM BKN050 BKN150
     FM290100 VRB04KT P6SM BKN250
     FM291500 21003KT P6SM VCSH SCT020 BKN250=

USA.gov is the U.S. government's official web portal to all federal, state and local government web resources and services.